sensor_id;sensor_type;location;lat;lon;timestamp;pressure;altitude;pressure_sealevel;temperature;humidity
42621;BME280;28252;53.336;-6.298;2024-02-16T00:00:24;100039.03;;;19.70;88.79
42621;BME280;28252;53.336;-6.298;2024-02-16T00:01:00;100037.31;;;19.69;89.15
42621;BME280;28252;53.336;-6.298;2024-02-16T00:01:33;100041.91;;;19.69;88.90
42621;BME280;28252;53.336;-6.298;2024-02-16T00:02:07;100041.06;;;19.68;89.03
42621;BME280;28252;53.336;-6.298;2024-02-16T00:02:41;100042.72;;;19.69;89.18
42621;BME280;28252;53.336;-6.298;2024-02-16T00:03:15;100038.16;;;19.70;89.21
42621;BME280;28252;53.336;-6.298;2024-02-16T00:03:49;100047.31;;;19.69;89.54
42621;BME280;28252;53.336;-6.298;2024-02-16T00:04:20;100045.25;;;19.71;89.38
42621;BME280;28252;53.336;-6.298;2024-02-16T00:04:53;100041.06;;;19.68;89.38
42621;BME280;28252;53.336;-6.298;2024-02-16T00:05:29;100044.97;;;19.66;89.29
42621;BME280;28252;53.336;-6.298;2024-02-16T00:06:03;100041.25;;;19.67;89.59
42621;BME280;28252;53.336;-6.298;2024-02-16T00:06:36;100040.22;;;19.68;89.70
42621;BME280;28252;53.336;-6.298;2024-02-16T00:07:09;100040.22;;;19.68;89.33
42621;BME280;28252;53.336;-6.298;2024-02-16T00:07:45;100043.94;;;19.67;89.68
42621;BME280;28252;53.336;-6.298;2024-02-16T00:08:19;100040.38;;;19.66;89.33
42621;BME280;28252;53.336;-6.298;2024-02-16T00:08:53;100040.38;;;19.66;89.13
42621;BME280;28252;53.336;-6.298;2024-02-16T00:09:24;100037.69;;;19.66;89.36
42621;BME280;28252;53.336;-6.298;2024-02-16T00:09:58;100043.94;;;19.67;89.28
42621;BME280;28252;53.336;-6.298;2024-02-16T00:10:31;100040.22;;;19.68;89.06
42621;BME280;28252;53.336;-6.298;2024-02-16T00:11:05;100043.09;;;19.66;89.48
42621;BME280;28252;53.336;-6.298;2024-02-16T00:11:39;100043.94;;;19.67;89.60
42621;BME280;28252;53.336;-6.298;2024-02-16T00:12:15;100042.25;;;19.66;89.61
42621;BME280;28252;53.336;-6.298;2024-02-16T00:12:52;100048.50;;;19.66;89.41
42621;BME280;28252;53.336;-6.298;2024-02-16T00:13:25;100042.25;;;19.66;89.47
42621;BME280;28252;53.336;-6.298;2024-02-16T00:13:58;100036.84;;;19.66;89.64
42621;BME280;28252;53.336;-6.298;2024-02-16T00:14:32;100036.84;;;19.66;89.38
42621;BME280;28252;53.336;-6.298;2024-02-16T00:15:08;100042.25;;;19.66;88.86
42621;BME280;28252;53.336;-6.298;2024-02-16T00:15:41;100042.25;;;19.66;89.46
42621;BME280;28252;53.336;-6.298;2024-02-16T00:16:15;100045.97;;;19.65;89.32
42621;BME280;28252;53.336;-6.298;2024-02-16T00:16:48;100048.50;;;19.66;89.23
42621;BME280;28252;53.336;-6.298;2024-02-16T00:17:19;100049.34;;;19.67;89.48
42621;BME280;28252;53.336;-6.298;2024-02-16T00:17:50;100053.06;;;19.66;89.68
42621;BME280;28252;53.336;-6.298;2024-02-16T00:18:21;100043.94;;;19.67;89.09
42621;BME280;28252;53.336;-6.298;2024-02-16T00:18:52;100042.25;;;19.66;89.48
42621;BME280;28252;53.336;-6.298;2024-02-16T00:19:26;100049.34;;;19.67;89.22
42621;BME280;28252;53.336;-6.298;2024-02-16T00:20:41;100050.19;;;19.67;89.17
42621;BME280;28252;53.336;-6.298;2024-02-16T00:21:19;100051.19;;;19.66;89.40
42621;BME280;28252;53.336;-6.298;2024-02-16T00:21:52;100050.19;;;19.67;88.85
42621;BME280;28252;53.336;-6.298;2024-02-16T00:22:24;100053.91;;;19.66;89.36
42621;BME280;28252;53.336;-6.298;2024-02-16T00:24:14;100051.19;;;19.66;89.78
42621;BME280;28252;53.336;-6.298;2024-02-16T00:24:47;100053.91;;;19.66;89.38
42621;BME280;28252;53.336;-6.298;2024-02-16T00:25:19;100046.84;;;19.65;89.51
42621;BME280;28252;53.336;-6.298;2024-02-16T00:25:54;100054.06;;;19.65;89.79
42621;BME280;28252;53.336;-6.298;2024-02-16T00:26:25;100062.19;;;19.65;89.53
42621;BME280;28252;53.336;-6.298;2024-02-16T00:27:37;100057.81;;;19.64;89.93
42621;BME280;28252;53.336;-6.298;2024-02-16T00:29:42;100062.56;;;19.62;89.94
42621;BME280;28252;53.336;-6.298;2024-02-16T00:30:17;100060.53;;;19.64;89.84
42621;BME280;28252;53.336;-6.298;2024-02-16T00:30:56;100065.91;;;19.64;89.65
42621;BME280;28252;53.336;-6.298;2024-02-16T00:31:27;100065.28;;;19.62;89.84
42621;BME280;28252;53.336;-6.298;2024-02-16T00:32:07;100062.56;;;19.62;89.82
42621;BME280;28252;53.336;-6.298;2024-02-16T00:32:41;100061.72;;;19.61;89.92
42621;BME280;28252;53.336;-6.298;2024-02-16T00:33:12;100062.56;;;19.62;89.72
42621;BME280;28252;53.336;-6.298;2024-02-16T00:33:45;100062.75;;;19.60;90.09
42621;BME280;28252;53.336;-6.298;2024-02-16T00:34:21;100065.44;;;19.60;90.05
42621;BME280;28252;53.336;-6.298;2024-02-16T00:34:53;100061.88;;;19.59;90.25
42621;BME280;28252;53.336;-6.298;2024-02-16T00:35:24;100066.28;;;19.60;89.83
42621;BME280;28252;53.336;-6.298;2024-02-16T00:36:05;100064.59;;;19.59;90.05
42621;BME280;28252;53.336;-6.298;2024-02-16T00:36:41;100060.06;;;19.60;89.81
42621;BME280;28252;53.336;-6.298;2024-02-16T00:37:16;100067.28;;;19.59;90.06
42621;BME280;28252;53.336;-6.298;2024-02-16T00:37:50;100064.59;;;19.59;89.96
42621;BME280;28252;53.336;-6.298;2024-02-16T00:39:34;100061.06;;;19.59;89.61
42621;BME280;28252;53.336;-6.298;2024-02-16T00:40:07;100069.34;;;19.57;90.31
42621;BME280;28252;53.336;-6.298;2024-02-16T00:40:43;100069.16;;;19.59;89.83
42621;BME280;28252;53.336;-6.298;2024-02-16T00:41:23;100063.09;;;19.57;90.16
42621;BME280;28252;53.336;-6.298;2024-02-16T00:42:02;100061.22;;;19.57;90.30
42621;BME280;28252;53.336;-6.298;2024-02-16T00:42:35;100063.94;;;19.57;90.81
42621;BME280;28252;53.336;-6.298;2024-02-16T00:43:06;100064.97;;;19.56;90.15
42621;BME280;28252;53.336;-6.298;2024-02-16T00:43:42;100065.81;;;19.57;89.76
42621;BME280;28252;53.336;-6.298;2024-02-16T00:44:20;100063.09;;;19.57;89.50
42621;BME280;28252;53.336;-6.298;2024-02-16T00:44:55;100064.97;;;19.56;90.16
42621;BME280;28252;53.336;-6.298;2024-02-16T00:46:38;100070.38;;;19.56;90.62
42621;BME280;28252;53.336;-6.298;2024-02-16T00:47:11;100058.72;;;19.56;90.38
42621;BME280;28252;53.336;-6.298;2024-02-16T00:47:49;100061.59;;;19.54;90.72
42621;BME280;28252;53.336;-6.298;2024-02-16T00:48:20;100061.59;;;19.54;90.56
42621;BME280;28252;53.336;-6.298;2024-02-16T00:48:54;100061.59;;;19.54;90.42
42621;BME280;28252;53.336;-6.298;2024-02-16T00:49:27;100061.59;;;19.54;89.98
42621;BME280;28252;53.336;-6.298;2024-02-16T00:49:58;100058.88;;;19.54;90.08
42621;BME280;28252;53.336;-6.298;2024-02-16T00:50:32;100064.28;;;19.54;90.53
42621;BME280;28252;53.336;-6.298;2024-02-16T00:51:03;100067.00;;;19.54;90.05
42621;BME280;28252;53.336;-6.298;2024-02-16T00:51:35;100065.34;;;19.53;90.48
42621;BME280;28252;53.336;-6.298;2024-02-16T00:52:08;100065.34;;;19.53;90.29
42621;BME280;28252;53.336;-6.298;2024-02-16T00:52:43;100065.34;;;19.53;90.56
42621;BME280;28252;53.336;-6.298;2024-02-16T00:53:16;100074.44;;;19.52;90.72
42621;BME280;28252;53.336;-6.298;2024-02-16T00:53:51;100063.63;;;19.52;90.36
42621;BME280;28252;53.336;-6.298;2024-02-16T00:54:25;100066.34;;;19.52;90.58
42621;BME280;28252;53.336;-6.298;2024-02-16T00:54:59;100064.69;;;19.51;90.87
42621;BME280;28252;53.336;-6.298;2024-02-16T00:55:32;100068.22;;;19.52;90.79
42621;BME280;28252;53.336;-6.298;2024-02-16T00:56:06;100064.69;;;19.51;90.88
42621;BME280;28252;53.336;-6.298;2024-02-16T00:56:40;100066.34;;;19.52;91.20
42621;BME280;28252;53.336;-6.298;2024-02-16T00:57:16;100063.63;;;19.52;90.97
42621;BME280;28252;53.336;-6.298;2024-02-16T00:57:52;100066.34;;;19.52;91.22
42621;BME280;28252;53.336;-6.298;2024-02-16T00:58:23;100076.31;;;19.52;91.32
42621;BME280;28252;53.336;-6.298;2024-02-16T00:58:58;100067.38;;;19.51;91.07
42621;BME280;28252;53.336;-6.298;2024-02-16T00:59:32;100073.63;;;19.52;90.55
42621;BME280;28252;53.336;-6.298;2024-02-16T01:00:03;100073.44;;;19.53;91.01
42621;BME280;28252;53.336;-6.298;2024-02-16T01:00:39;100073.63;;;19.52;90.98
42621;BME280;28252;53.336;-6.298;2024-02-16T01:01:13;100079.03;;;19.52;91.41
42621;BME280;28252;53.336;-6.298;2024-02-16T01:01:47;100072.78;;;19.51;91.44
42621;BME280;28252;53.336;-6.298;2024-02-16T01:02:18;100071.91;;;19.51;91.08
42621;BME280;28252;53.336;-6.298;2024-02-16T01:02:50;100075.47;;;19.51;90.94
42621;BME280;28252;53.336;-6.298;2024-02-16T01:03:23;100078.19;;;19.51;91.56
42621;BME280;28252;53.336;-6.298;2024-02-16T01:04:02;100080.19;;;19.49;91.46
42621;BME280;28252;53.336;-6.298;2024-02-16T01:05:59;100076.50;;;19.50;91.21
42621;BME280;28252;53.336;-6.298;2024-02-16T01:06:33;100076.50;;;19.50;91.22
42621;BME280;28252;53.336;-6.298;2024-02-16T01:07:06;100080.19;;;19.49;91.77
42621;BME280;28252;53.336;-6.298;2024-02-16T01:07:41;100067.75;;;19.48;91.36
42621;BME280;28252;53.336;-6.298;2024-02-16T01:08:16;100077.69;;;19.48;90.99
42621;BME280;28252;53.336;-6.298;2024-02-16T01:08:52;100084.13;;;19.47;91.49
42621;BME280;28252;53.336;-6.298;2024-02-16T01:09:24;100081.25;;;19.48;91.58
42621;BME280;28252;53.336;-6.298;2024-02-16T01:09:55;100077.69;;;19.48;91.28
42621;BME280;28252;53.336;-6.298;2024-02-16T01:10:31;100080.38;;;19.48;91.50
42621;BME280;28252;53.336;-6.298;2024-02-16T01:11:06;100073.13;;;19.48;91.46
42621;BME280;28252;53.336;-6.298;2024-02-16T01:11:43;100077.69;;;19.48;91.64
42621;BME280;28252;53.336;-6.298;2024-02-16T01:12:19;100076.84;;;19.47;91.63
42621;BME280;28252;53.336;-6.298;2024-02-16T01:12:56;100076.84;;;19.47;91.74
42621;BME280;28252;53.336;-6.298;2024-02-16T01:13:30;100081.41;;;19.47;91.39
42621;BME280;28252;53.336;-6.298;2024-02-16T01:14:01;100073.50;;;19.45;92.13
42621;BME280;28252;53.336;-6.298;2024-02-16T01:14:34;100073.50;;;19.45;91.64
42621;BME280;28252;53.336;-6.298;2024-02-16T01:15:11;100075.53;;;19.43;91.48
42621;BME280;28252;53.336;-6.298;2024-02-16T01:15:49;100079.25;;;19.42;91.78
42621;BME280;28252;53.336;-6.298;2024-02-16T01:16:21;100079.25;;;19.42;92.02
42621;BME280;28252;53.336;-6.298;2024-02-16T01:16:52;100079.25;;;19.42;92.16
42621;BME280;28252;53.336;-6.298;2024-02-16T01:17:25;100080.94;;;19.43;92.10
42621;BME280;28252;53.336;-6.298;2024-02-16T01:17:59;100078.25;;;19.43;91.72
42621;BME280;28252;53.336;-6.298;2024-02-16T01:18:36;100075.53;;;19.43;91.82
42621;BME280;28252;53.336;-6.298;2024-02-16T01:19:09;100079.25;;;19.42;92.42
42621;BME280;28252;53.336;-6.298;2024-02-16T01:19:46;100078.25;;;19.43;92.32
42621;BME280;28252;53.336;-6.298;2024-02-16T01:20:19;100074.69;;;19.42;92.27
42621;BME280;28252;53.336;-6.298;2024-02-16T01:20:51;100080.28;;;19.41;92.32
42621;BME280;28252;53.336;-6.298;2024-02-16T01:21:25;100082.78;;;19.42;92.33
42621;BME280;28252;53.336;-6.298;2024-02-16T01:22:00;100085.47;;;19.42;91.83
42621;BME280;28252;53.336;-6.298;2024-02-16T01:22:32;100084.66;;;19.42;91.77
42621;BME280;28252;53.336;-6.298;2024-02-16T01:23:05;100081.94;;;19.42;91.66
42621;BME280;28252;53.336;-6.298;2024-02-16T01:23:41;100079.25;;;19.42;91.88
42621;BME280;28252;53.336;-6.298;2024-02-16T01:24:14;100081.13;;;19.41;91.69
42621;BME280;28252;53.336;-6.298;2024-02-16T01:24:51;100076.72;;;19.40;92.18
42621;BME280;28252;53.336;-6.298;2024-02-16T01:25:27;100077.59;;;19.41;92.45
42621;BME280;28252;53.336;-6.298;2024-02-16T01:25:58;100087.34;;;19.42;91.96
42621;BME280;28252;53.336;-6.298;2024-02-16T01:26:30;100081.13;;;19.41;91.71
42621;BME280;28252;53.336;-6.298;2024-02-16T01:28:10;100087.34;;;19.42;92.27
42621;BME280;28252;53.336;-6.298;2024-02-16T01:28:43;100092.75;;;19.42;92.32
42621;BME280;28252;53.336;-6.298;2024-02-16T01:29:17;100090.06;;;19.42;91.63
42621;BME280;28252;53.336;-6.298;2024-02-16T01:29:48;100083.00;;;19.41;92.12
42621;BME280;28252;53.336;-6.298;2024-02-16T01:30:19;100089.41;;;19.40;91.96
42621;BME280;28252;53.336;-6.298;2024-02-16T01:30:53;100090.06;;;19.42;91.89
42621;BME280;28252;53.336;-6.298;2024-02-16T01:31:31;100092.09;;;19.40;91.96
42621;BME280;28252;53.336;-6.298;2024-02-16T01:32:07;100088.56;;;19.39;92.24
42621;BME280;28252;53.336;-6.298;2024-02-16T01:32:38;100092.94;;;19.40;91.62
42621;BME280;28252;53.336;-6.298;2024-02-16T01:33:12;100090.41;;;19.39;91.70
42621;BME280;28252;53.336;-6.298;2024-02-16T01:33:48;100092.09;;;19.40;91.68
42621;BME280;28252;53.336;-6.298;2024-02-16T01:34:22;100089.56;;;19.38;92.11
42621;BME280;28252;53.336;-6.298;2024-02-16T01:34:53;100095.81;;;19.39;91.75
42621;BME280;28252;53.336;-6.298;2024-02-16T01:35:27;100094.97;;;19.38;91.85
42621;BME280;28252;53.336;-6.298;2024-02-16T01:36:44;100088.91;;;19.36;92.17
42621;BME280;28252;53.336;-6.298;2024-02-16T01:37:17;100089.94;;;19.35;92.46
42621;BME280;28252;53.336;-6.298;2024-02-16T01:37:55;100090.09;;;19.34;92.18
42621;BME280;28252;53.336;-6.298;2024-02-16T01:38:28;100090.97;;;19.34;92.31
42621;BME280;28252;53.336;-6.298;2024-02-16T01:39:04;100099.06;;;19.34;92.19
42621;BME280;28252;53.336;-6.298;2024-02-16T01:39:56;100085.75;;;19.33;92.66
42621;BME280;28252;53.336;-6.298;2024-02-16T01:40:27;100086.56;;;19.33;92.57
42621;BME280;28252;53.336;-6.298;2024-02-16T01:40:58;100091.16;;;19.33;92.67
42621;BME280;28252;53.336;-6.298;2024-02-16T01:41:30;100089.44;;;19.32;93.02
42621;BME280;28252;53.336;-6.298;2024-02-16T01:42:01;100091.31;;;19.31;92.71
42621;BME280;28252;53.336;-6.298;2024-02-16T01:42:35;100089.63;;;19.30;93.07
42621;BME280;28252;53.336;-6.298;2024-02-16T01:43:11;100091.50;;;19.30;92.92
42621;BME280;28252;53.336;-6.298;2024-02-16T01:43:42;100088.13;;;19.28;93.17
42621;BME280;28252;53.336;-6.298;2024-02-16T01:44:13;100088.13;;;19.28;93.21
42621;BME280;28252;53.336;-6.298;2024-02-16T01:44:49;100089.81;;;19.29;92.96
42621;BME280;28252;53.336;-6.298;2024-02-16T01:45:23;100088.13;;;19.28;93.39
42621;BME280;28252;53.336;-6.298;2024-02-16T01:45:54;100094.19;;;19.30;92.93
42621;BME280;28252;53.336;-6.298;2024-02-16T01:46:34;100094.38;;;19.28;93.29
42621;BME280;28252;53.336;-6.298;2024-02-16T01:47:12;100088.13;;;19.28;93.11
42621;BME280;28252;53.336;-6.298;2024-02-16T01:47:47;100093.53;;;19.28;93.12
42621;BME280;28252;53.336;-6.298;2024-02-16T01:48:21;100088.13;;;19.28;92.86
42621;BME280;28252;53.336;-6.298;2024-02-16T01:49:00;100082.75;;;19.28;92.76
42621;BME280;28252;53.336;-6.298;2024-02-16T01:49:33;100089.16;;;19.27;92.71
42621;BME280;28252;53.336;-6.298;2024-02-16T01:50:12;100087.28;;;19.27;92.74
42621;BME280;28252;53.336;-6.298;2024-02-16T01:50:43;100091.66;;;19.28;92.50
42621;BME280;28252;53.336;-6.298;2024-02-16T01:51:15;100095.19;;;19.29;92.96
42621;BME280;28252;53.336;-6.298;2024-02-16T01:51:48;100091.84;;;19.27;92.96
42621;BME280;28252;53.336;-6.298;2024-02-16T01:52:26;100094.53;;;19.27;92.59
42621;BME280;28252;53.336;-6.298;2024-02-16T01:52:58;100092.84;;;19.26;92.81
42621;BME280;28252;53.336;-6.298;2024-02-16T01:53:29;100088.13;;;19.28;92.57
42621;BME280;28252;53.336;-6.298;2024-02-16T01:54:05;100088.13;;;19.28;92.37
42621;BME280;28252;53.336;-6.298;2024-02-16T01:54:37;100086.44;;;19.27;92.44
42621;BME280;28252;53.336;-6.298;2024-02-16T01:55:11;100087.47;;;19.26;93.07
42621;BME280;28252;53.336;-6.298;2024-02-16T01:55:48;100091.00;;;19.26;92.70
42621;BME280;28252;53.336;-6.298;2024-02-16T01:56:22;100091.84;;;19.27;92.39
42621;BME280;28252;53.336;-6.298;2024-02-16T01:56:53;100085.78;;;19.25;92.74
42621;BME280;28252;53.336;-6.298;2024-02-16T01:57:32;100088.31;;;19.26;92.99
42621;BME280;28252;53.336;-6.298;2024-02-16T01:58:06;100084.75;;;19.26;92.89
42621;BME280;28252;53.336;-6.298;2024-02-16T01:58:41;100092.19;;;19.23;93.10
42621;BME280;28252;53.336;-6.298;2024-02-16T01:59:16;100088.50;;;19.25;93.04
42621;BME280;28252;53.336;-6.298;2024-02-16T01:59:49;100092.03;;;19.25;92.47
42621;BME280;28252;53.336;-6.298;2024-02-16T02:00:26;100089.50;;;19.23;92.95
42621;BME280;28252;53.336;-6.298;2024-02-16T02:00:57;100085.13;;;19.22;93.23
42621;BME280;28252;53.336;-6.298;2024-02-16T02:01:31;100093.25;;;19.22;92.70
42621;BME280;28252;53.336;-6.298;2024-02-16T02:02:02;100095.94;;;19.22;92.95
42621;BME280;28252;53.336;-6.298;2024-02-16T02:02:36;100095.94;;;19.22;92.46
42621;BME280;28252;53.336;-6.298;2024-02-16T02:03:09;100094.06;;;19.23;92.66
42621;BME280;28252;53.336;-6.298;2024-02-16T02:03:44;100091.38;;;19.23;92.98
42621;BME280;28252;53.336;-6.298;2024-02-16T02:04:18;100088.84;;;19.21;92.99
42621;BME280;28252;53.336;-6.298;2024-02-16T02:04:53;100086.97;;;19.22;92.63
42621;BME280;28252;53.336;-6.298;2024-02-16T02:05:24;100100.47;;;19.22;92.69
42621;BME280;28252;53.336;-6.298;2024-02-16T02:06:02;100090.53;;;19.22;93.16
42621;BME280;28252;53.336;-6.298;2024-02-16T02:06:38;100085.13;;;19.22;93.08
42621;BME280;28252;53.336;-6.298;2024-02-16T02:07:15;100089.66;;;19.22;92.86
42621;BME280;28252;53.336;-6.298;2024-02-16T02:07:50;100093.25;;;19.22;92.78
42621;BME280;28252;53.336;-6.298;2024-02-16T02:08:26;100093.25;;;19.22;92.93
42621;BME280;28252;53.336;-6.298;2024-02-16T02:08:59;100090.53;;;19.22;92.61
42621;BME280;28252;53.336;-6.298;2024-02-16T02:10:54;100090.88;;;19.19;92.72
42621;BME280;28252;53.336;-6.298;2024-02-16T02:11:25;100090.88;;;19.19;93.23
42621;BME280;28252;53.336;-6.298;2024-02-16T02:11:59;100096.28;;;19.19;92.94
42621;BME280;28252;53.336;-6.298;2024-02-16T02:12:35;100090.22;;;19.17;92.82
42621;BME280;28252;53.336;-6.298;2024-02-16T02:13:09;100099.16;;;19.18;93.11
42621;BME280;28252;53.336;-6.298;2024-02-16T02:13:41;100100.00;;;19.18;93.34
42621;BME280;28252;53.336;-6.298;2024-02-16T02:14:14;100101.84;;;19.18;93.02
42621;BME280;28252;53.336;-6.298;2024-02-16T02:14:48;100100.00;;;19.18;92.94
42621;BME280;28252;53.336;-6.298;2024-02-16T02:15:24;100100.84;;;19.19;93.30
42621;BME280;28252;53.336;-6.298;2024-02-16T02:15:55;100104.56;;;19.18;93.10
42621;BME280;28252;53.336;-6.298;2024-02-16T02:16:32;100096.63;;;19.16;93.35
42621;BME280;28252;53.336;-6.298;2024-02-16T02:17:04;100098.34;;;19.17;93.12
42621;BME280;28252;53.336;-6.298;2024-02-16T02:17:35;100098.34;;;19.17;92.84
42621;BME280;28252;53.336;-6.298;2024-02-16T02:18:08;100107.44;;;19.16;93.04
42621;BME280;28252;53.336;-6.298;2024-02-16T02:18:44;100105.75;;;19.15;93.36
42621;BME280;28252;53.336;-6.298;2024-02-16T02:19:17;100098.69;;;19.14;93.12
42621;BME280;28252;53.336;-6.298;2024-02-16T02:19:50;100101.38;;;19.14;93.20
42621;BME280;28252;53.336;-6.298;2024-02-16T02:20:25;100106.94;;;19.13;93.35
42621;BME280;28252;53.336;-6.298;2024-02-16T02:20:57;100104.25;;;19.13;93.41
42621;BME280;28252;53.336;-6.298;2024-02-16T02:21:28;100107.97;;;19.12;93.59
42621;BME280;28252;53.336;-6.298;2024-02-16T02:22:03;100106.13;;;19.12;92.97
42621;BME280;28252;53.336;-6.298;2024-02-16T02:22:40;100098.03;;;19.12;93.20
42621;BME280;28252;53.336;-6.298;2024-02-16T02:23:16;100105.09;;;19.13;93.32
42621;BME280;28252;53.336;-6.298;2024-02-16T02:23:52;100105.09;;;19.13;93.11
42621;BME280;28252;53.336;-6.298;2024-02-16T02:24:23;100107.78;;;19.13;93.66
42621;BME280;28252;53.336;-6.298;2024-02-16T02:24:57;100098.69;;;19.14;93.46
42621;BME280;28252;53.336;-6.298;2024-02-16T02:25:32;100107.78;;;19.13;93.50
42621;BME280;28252;53.336;-6.298;2024-02-16T02:26:04;100104.06;;;19.14;93.61
42621;BME280;28252;53.336;-6.298;2024-02-16T02:26:36;100100.34;;;19.15;93.36
42621;BME280;28252;53.336;-6.298;2024-02-16T02:27:11;100098.69;;;19.14;93.29
42621;BME280;28252;53.336;-6.298;2024-02-16T02:27:47;100096.63;;;19.16;93.87
42621;BME280;28252;53.336;-6.298;2024-02-16T02:28:18;100101.38;;;19.14;93.47
42621;BME280;28252;53.336;-6.298;2024-02-16T02:28:59;100100.34;;;19.15;93.34
42621;BME280;28252;53.336;-6.298;2024-02-16T02:29:34;100104.91;;;19.15;93.64
42621;BME280;28252;53.336;-6.298;2024-02-16T02:30:08;100102.22;;;19.15;93.90
42621;BME280;28252;53.336;-6.298;2024-02-16T02:30:39;100102.38;;;19.13;93.63
42621;BME280;28252;53.336;-6.298;2024-02-16T02:31:16;100099.69;;;19.13;94.17
42621;BME280;28252;53.336;-6.298;2024-02-16T02:31:50;100102.38;;;19.13;94.33
42621;BME280;28252;53.336;-6.298;2024-02-16T02:32:22;100106.13;;;19.12;94.20
42621;BME280;28252;53.336;-6.298;2024-02-16T02:32:57;100107.97;;;19.12;94.37
42621;BME280;28252;53.336;-6.298;2024-02-16T02:33:33;100110.47;;;19.13;93.91
42621;BME280;28252;53.336;-6.298;2024-02-16T02:34:04;100107.78;;;19.13;94.09
42621;BME280;28252;53.336;-6.298;2024-02-16T02:34:36;100107.78;;;19.13;94.14
42621;BME280;28252;53.336;-6.298;2024-02-16T02:35:10;100107.78;;;19.13;94.32
42621;BME280;28252;53.336;-6.298;2024-02-16T02:35:43;100106.78;;;19.14;93.59
42621;BME280;28252;53.336;-6.298;2024-02-16T02:36:17;100111.13;;;19.15;93.55
42621;BME280;28252;53.336;-6.298;2024-02-16T02:36:48;100112.84;;;19.16;93.21
42621;BME280;28252;53.336;-6.298;2024-02-16T02:37:19;100115.53;;;19.16;93.76
42621;BME280;28252;53.336;-6.298;2024-02-16T02:37:51;100115.34;;;19.18;93.38
42621;BME280;28252;53.336;-6.298;2024-02-16T02:39:07;100114.34;;;19.19;93.04
42621;BME280;28252;53.336;-6.298;2024-02-16T02:39:38;100116.19;;;19.18;93.60
42621;BME280;28252;53.336;-6.298;2024-02-16T02:40:09;100118.88;;;19.18;93.43
42621;BME280;28252;53.336;-6.298;2024-02-16T02:40:47;100112.66;;;19.18;93.35
42621;BME280;28252;53.336;-6.298;2024-02-16T02:41:19;100114.53;;;19.17;93.53
42621;BME280;28252;53.336;-6.298;2024-02-16T02:41:51;100114.53;;;19.17;93.16
42621;BME280;28252;53.336;-6.298;2024-02-16T02:42:27;100112.66;;;19.18;93.73
42621;BME280;28252;53.336;-6.298;2024-02-16T02:43:07;100103.72;;;19.17;93.54
42621;BME280;28252;53.336;-6.298;2024-02-16T02:43:44;100113.50;;;19.18;93.81
42621;BME280;28252;53.336;-6.298;2024-02-16T02:44:18;100117.06;;;19.19;93.63
42621;BME280;28252;53.336;-6.298;2024-02-16T02:44:50;100113.50;;;19.18;93.58
42621;BME280;28252;53.336;-6.298;2024-02-16T02:46:45;100110.78;;;19.18;93.58
42621;BME280;28252;53.336;-6.298;2024-02-16T02:47:18;100111.66;;;19.19;93.84
42621;BME280;28252;53.336;-6.298;2024-02-16T02:47:53;100114.16;;;19.20;93.66
42621;BME280;28252;53.336;-6.298;2024-02-16T02:48:29;100115.00;;;19.21;93.93
42621;BME280;28252;53.336;-6.298;2024-02-16T02:49:07;100110.44;;;19.21;93.81
42621;BME280;28252;53.336;-6.298;2024-02-16T02:49:41;100109.44;;;19.22;93.89
42621;BME280;28252;53.336;-6.298;2024-02-16T02:50:14;100112.31;;;19.21;93.76
42621;BME280;28252;53.336;-6.298;2024-02-16T02:50:45;100113.13;;;19.21;93.74
42621;BME280;28252;53.336;-6.298;2024-02-16T02:51:21;100112.13;;;19.22;93.67
42621;BME280;28252;53.336;-6.298;2024-02-16T02:51:52;100112.13;;;19.22;93.73
42621;BME280;28252;53.336;-6.298;2024-02-16T02:52:28;100112.13;;;19.22;93.60
42621;BME280;28252;53.336;-6.298;2024-02-16T02:53:04;100112.13;;;19.22;94.60
42621;BME280;28252;53.336;-6.298;2024-02-16T02:53:40;100112.97;;;19.23;94.44
42621;BME280;28252;53.336;-6.298;2024-02-16T02:54:11;100112.97;;;19.23;94.30
42621;BME280;28252;53.336;-6.298;2024-02-16T02:56:09;100109.25;;;19.24;94.61
42621;BME280;28252;53.336;-6.298;2024-02-16T02:56:43;100106.72;;;19.22;94.74
42621;BME280;28252;53.336;-6.298;2024-02-16T02:57:19;100117.53;;;19.22;94.54
42621;BME280;28252;53.336;-6.298;2024-02-16T02:57:51;100106.72;;;19.22;94.51
42621;BME280;28252;53.336;-6.298;2024-02-16T02:58:26;100110.44;;;19.21;94.32
42621;BME280;28252;53.336;-6.298;2024-02-16T02:59:02;100112.13;;;19.22;94.31
42621;BME280;28252;53.336;-6.298;2024-02-16T02:59:36;100105.88;;;19.22;94.59
42621;BME280;28252;53.336;-6.298;2024-02-16T03:00:11;100108.41;;;19.23;94.18
42621;BME280;28252;53.336;-6.298;2024-02-16T03:00:49;100106.72;;;19.22;94.38
42621;BME280;28252;53.336;-6.298;2024-02-16T03:01:20;100111.09;;;19.23;94.43
42621;BME280;28252;53.336;-6.298;2024-02-16T03:01:53;100115.50;;;19.25;94.45
42621;BME280;28252;53.336;-6.298;2024-02-16T03:02:32;100112.78;;;19.25;94.41
42621;BME280;28252;53.336;-6.298;2024-02-16T03:03:06;100115.50;;;19.25;94.14
42621;BME280;28252;53.336;-6.298;2024-02-16T03:03:39;100117.16;;;19.26;94.47
42621;BME280;28252;53.336;-6.298;2024-02-16T03:04:18;100115.50;;;19.25;94.22
42621;BME280;28252;53.336;-6.298;2024-02-16T03:04:58;100116.31;;;19.25;94.21
42621;BME280;28252;53.336;-6.298;2024-02-16T03:05:32;100118.84;;;19.27;94.19
42621;BME280;28252;53.336;-6.298;2024-02-16T03:06:07;100118.00;;;19.26;94.26
42621;BME280;28252;53.336;-6.298;2024-02-16T03:06:38;100117.16;;;19.26;94.40
42621;BME280;28252;53.336;-6.298;2024-02-16T03:07:10;100116.16;;;19.27;94.19
42621;BME280;28252;53.336;-6.298;2024-02-16T03:07:46;100118.84;;;19.27;94.22
42621;BME280;28252;53.336;-6.298;2024-02-16T03:08:25;100123.25;;;19.28;94.34
42621;BME280;28252;53.336;-6.298;2024-02-16T03:08:58;100120.53;;;19.28;94.68
42621;BME280;28252;53.336;-6.298;2024-02-16T03:09:30;100122.19;;;19.29;94.25
42621;BME280;28252;53.336;-6.298;2024-02-16T03:10:01;100119.50;;;19.29;94.29
42621;BME280;28252;53.336;-6.298;2024-02-16T03:10:36;100120.38;;;19.29;93.83